Time;durP1;ratioP1;P1;durP2;ratioP2;P2;SDS_P1;SDS_P2;PMS_P1;PMS_P2;Temp;Humidity;BMP_temperature;BMP_pressure;BME280_temperature;BME280_humidity;BME280_pressure;Samples;Min_cycle;Max_cycle;Signal;HPM_P1;HPM_P2
2021/04/06 00:01:54;;;;;;;2.70;2.50;;;;;;;3.03;70.38;99512.94;5083622;28;20229;-64
2021/04/06 00:04:22;;;;;;;2.67;2.47;;;;;;;2.91;70.62;99516.47;5083078;28;20209;-63
2021/04/06 00:06:50;;;;;;;3.20;2.50;;;;;;;2.77;71.08;99507.72;5083764;28;20236;-63
2021/04/06 00:09:19;;;;;;;3.58;3.20;;;;;;;2.69;71.00;99507.47;5082904;28;20238;-63
2021/04/06 00:11:47;;;;;;;3.50;3.20;;;;;;;2.74;70.55;99507.97;5083333;28;20237;-64
2021/04/06 00:14:15;;;;;;;4.07;3.30;;;;;;;2.56;70.99;99503.97;5083448;28;20482;-63
2021/04/06 00:16:42;;;;;;;5.90;2.83;;;;;;;2.72;69.80;99516.94;5083464;28;20241;-64
2021/04/06 00:19:10;;;;;;;10.13;3.57;;;;;;;2.60;70.08;99523.91;5082668;28;20452;-66
2021/04/06 00:21:37;;;;;;;5.63;2.78;;;;;;;2.44;70.73;99526.78;5083149;28;20476;-64
2021/04/06 00:24:05;;;;;;;3.60;3.30;;;;;;;2.52;70.46;99529.75;5083220;28;20255;-62
2021/04/06 00:26:48;;;;;;;3.63;2.90;;;;;;;2.75;69.78;99529.91;5082654;28;20236;-63
2021/04/06 00:29:17;;;;;;;4.47;3.10;;;;;;;2.91;69.00;99530.50;5083634;28;20493;-65
2021/04/06 00:31:46;;;;;;;4.10;2.60;;;;;;;3.07;68.47;99529.41;5083091;28;20226;-63
2021/04/06 00:34:13;;;;;;;4.70;2.97;;;;;;;3.04;67.98;99537.53;5082467;28;20573;-64
2021/04/06 00:36:40;;;;;;;6.00;2.97;;;;;;;2.71;68.91;99544.28;5082998;28;20443;-64
2021/04/06 00:39:07;;;;;;;4.00;2.97;;;;;;;2.96;68.07;99549.50;5083249;28;20202;-63
2021/04/06 00:41:34;;;;;;;4.03;2.67;;;;;;;2.77;68.45;99549.97;5081890;28;20230;-63
2021/04/06 00:44:10;;;;;;;3.50;2.42;;;;;;;2.85;67.87;99544.16;5082932;28;20217;-63
2021/04/06 00:46:38;;;;;;;4.25;3.13;;;;;;;3.00;67.89;99561.56;5082773;28;20748;-64
2021/04/06 00:49:04;;;;;;;5.03;2.85;;;;;;;2.80;67.43;99559.47;5082895;28;20205;-63
2021/04/06 00:51:38;;;;;;;7.57;3.10;;;;;;;2.82;67.16;99562.84;5082579;28;20221;-63
2021/04/06 00:54:05;;;;;;;7.18;3.10;;;;;;;2.65;67.84;99564.03;5082874;28;20209;-64
2021/04/06 00:56:33;;;;;;;3.70;3.07;;;;;;;2.73;67.23;99574.06;5081963;28;20237;-66
2021/04/06 00:59:01;;;;;;;4.68;2.53;;;;;;;2.51;68.06;99574.69;5083486;28;20436;-63
2021/04/06 01:01:29;;;;;;;4.30;2.67;;;;;;;2.66;67.81;99583.34;5082315;28;20233;-62
2021/04/06 01:03:57;;;;;;;4.50;2.20;;;;;;;2.43;68.25;99586.63;5082197;28;20244;-63
2021/04/06 01:06:24;;;;;;;3.70;2.55;;;;;;;2.45;68.14;99600.56;5081833;28;20236;-63
2021/04/06 01:08:52;;;;;;;5.75;2.80;;;;;;;2.94;67.01;99592.81;5082131;28;20210;-63
2021/04/06 01:11:18;;;;;;;5.25;2.58;;;;;;;2.63;67.47;99594.97;5081947;28;20714;-62
2021/04/06 01:13:45;;;;;;;5.80;2.97;;;;;;;2.44;67.80;99587.47;5083010;28;20214;-62
2021/04/06 01:16:11;;;;;;;6.40;3.45;;;;;;;2.87;66.90;99595.06;5081319;28;20238;-62
2021/04/06 01:18:37;;;;;;;6.95;2.90;;;;;;;2.64;67.47;99597.50;5081925;28;20205;-62
2021/04/06 01:21:08;;;;;;;7.63;2.63;;;;;;;2.56;67.86;99594.53;5081544;28;20225;-62
2021/04/06 01:23:35;;;;;;;5.43;2.40;;;;;;;2.73;67.91;99606.56;5082634;28;20444;-63
2021/04/06 01:26:02;;;;;;;4.25;2.10;;;;;;;2.38;68.82;99598.47;5081509;28;20248;-63
2021/04/06 01:28:30;;;;;;;3.77;2.53;;;;;;;2.78;67.91;99611.53;5082217;28;20189;-63
2021/04/06 01:30:57;;;;;;;4.05;3.20;;;;;;;2.86;67.98;99601.28;5082027;28;20476;-62
2021/04/06 01:33:25;;;;;;;5.53;2.85;;;;;;;2.93;67.44;99612.25;5081483;28;20205;-62
2021/04/06 01:35:54;;;;;;;3.90;2.50;;;;;;;2.65;67.90;99608.88;5081356;28;20692;-62
2021/04/06 01:38:24;;;;;;;4.78;2.65;;;;;;;2.77;67.55;99615.97;5081953;28;20678;-62
2021/04/06 01:40:52;;;;;;;2.42;2.22;;;;;;;2.82;67.37;99613.84;5081933;28;20768;-62
2021/04/06 01:43:20;;;;;;;2.65;2.45;;;;;;;2.69;67.80;99613.03;5081836;28;20210;-63
2021/04/06 01:45:49;;;;;;;6.32;2.40;;;;;;;2.61;68.21;99613.53;5081532;28;20256;-62
2021/04/06 01:48:16;;;;;;;3.00;1.70;;;;;;;2.85;67.91;99615.44;5080953;28;20239;-62
2021/04/06 01:50:43;;;;;;;7.82;2.70;;;;;;;2.87;67.72;99616.16;5081146;28;21142;-62
2021/04/06 01:53:09;;;;;;;7.40;2.80;;;;;;;2.81;67.58;99614.81;5081531;28;20300;-62
2021/04/06 01:55:38;;;;;;;5.60;2.70;;;;;;;2.93;67.55;99617.53;5080695;28;20475;-62
2021/04/06 01:58:06;;;;;;;4.83;3.10;;;;;;;2.79;67.64;99613.22;5082368;28;20511;-63
2021/04/06 02:00:40;;;;;;;4.68;3.42;;;;;;;2.64;68.18;99613.34;5081188;28;20474;-63
2021/04/06 02:03:10;;;;;;;5.32;3.95;;;;;;;2.66;68.42;99605.31;5081571;28;20299;-63
2021/04/06 02:05:36;;;;;;;4.28;3.33;;;;;;;2.50;68.55;99615.22;5080076;28;20265;-63
2021/04/06 02:08:10;;;;;;;5.32;4.10;;;;;;;2.59;68.24;99612.81;5081478;28;20259;-63
2021/04/06 02:10:36;;;;;;;8.83;5.00;;;;;;;2.35;69.06;99617.13;5080262;28;20240;-63
2021/04/06 02:13:10;;;;;;;6.13;4.28;;;;;;;2.46;68.80;99622.50;5081883;28;20432;-62
2021/04/06 02:15:36;;;;;;;5.63;4.28;;;;;;;2.35;69.33;99614.47;5080382;28;20248;-63
2021/04/06 02:18:03;;;;;;;8.02;4.65;;;;;;;2.79;67.92;99615.84;5080906;28;20210;-63
2021/04/06 02:20:29;;;;;;;10.13;5.00;;;;;;;2.45;68.98;99615.56;5080796;28;20230;-63
2021/04/06 02:22:56;;;;;;;7.50;4.97;;;;;;;2.22;69.65;99628.50;5081545;28;20667;-63
2021/04/06 02:25:23;;;;;;;6.88;5.43;;;;;;;2.53;69.06;99617.66;5080179;28;20214;-63
2021/04/06 02:27:49;;;;;;;7.15;5.22;;;;;;;2.48;69.35;99625.03;5081641;28;20631;-63
2021/04/06 02:30:17;;;;;;;7.35;4.78;;;;;;;2.57;69.00;99622.63;5080436;28;20249;-63
2021/04/06 02:32:43;;;;;;;9.80;4.25;;;;;;;2.76;68.37;99619.56;5081034;28;20205;-63
2021/04/06 02:35:11;;;;;;;5.70;4.60;;;;;;;2.55;69.04;99621.88;5079784;28;20209;-63
2021/04/06 02:37:39;;;;;;;5.17;4.17;;;;;;;2.98;67.94;99625.97;5081800;28;20458;-63
2021/04/06 02:40:08;;;;;;;11.03;4.30;;;;;;;2.63;68.57;99630.09;5079392;28;20820;-63
2021/04/06 02:42:35;;;;;;;7.13;3.70;;;;;;;2.89;68.28;99637.19;5081537;28;20432;-63
2021/04/06 02:45:12;;;;;;;5.20;3.63;;;;;;;2.75;68.74;99638.16;5081233;28;20232;-63
2021/04/06 02:47:41;;;;;;;7.78;3.92;;;;;;;2.90;68.17;99639.72;5060177;28;20461;-63
2021/04/06 02:50:10;;;;;;;6.07;3.83;;;;;;;2.80;68.25;99636.88;5061225;28;20199;-63
2021/04/06 02:52:36;;;;;;;5.65;3.72;;;;;;;2.58;68.61;99628.75;5081386;28;20456;-63
2021/04/06 02:55:04;;;;;;;3.92;3.53;;;;;;;2.96;67.24;99623.44;5081004;28;20214;-63
2021/04/06 02:57:30;;;;;;;5.63;3.27;;;;;;;2.87;67.32;99626.72;5091497;28;20224;-63
2021/04/06 02:59:57;;;;;;;9.48;3.83;;;;;;;3.04;67.33;99629.97;5091697;28;20496;-63
2021/04/06 03:02:23;;;;;;;3.50;3.10;;;;;;;2.80;68.32;99628.94;5080964;28;20230;-62
2021/04/06 03:04:51;;;;;;;4.55;2.83;;;;;;;2.75;68.47;99622.31;5080442;28;20463;-63
2021/04/06 03:07:22;;;;;;;8.35;3.45;;;;;;;3.06;67.43;99620.19;5096387;28;20766;-63
2021/04/06 03:09:53;;;;;;;6.00;2.90;;;;;;;3.03;67.97;99623.84;5104675;28;20247;-63
2021/04/06 03:12:20;;;;;;;4.90;2.97;;;;;;;3.07;67.39;99627.13;5104361;28;20483;-63
2021/04/06 03:14:48;;;;;;;5.45;3.75;;;;;;;3.14;67.25;99625.72;5101024;28;20458;-63
2021/04/06 03:17:14;;;;;;;4.40;3.90;;;;;;;3.09;67.21;99625.22;5084755;28;20244;-63
2021/04/06 03:19:40;;;;;;;6.10;3.20;;;;;;;2.62;68.26;99630.22;5086955;28;20455;-63
2021/04/06 03:22:08;;;;;;;4.82;3.35;;;;;;;3.01;67.29;99631.06;5104970;28;20479;-63
2021/04/06 03:24:34;;;;;;;4.00;3.03;;;;;;;3.30;66.44;99634.28;5093944;28;20417;-63
2021/04/06 03:27:01;;;;;;;4.23;3.40;;;;;;;3.25;66.64;99632.91;5084090;28;20468;-63
2021/04/06 03:29:28;;;;;;;6.40;4.50;;;;;;;3.32;66.42;99639.44;5090941;28;20432;-63
2021/04/06 03:31:55;;;;;;;4.83;3.57;;;;;;;3.39;66.04;99643.34;5091081;28;20474;-63
2021/04/06 03:34:21;;;;;;;11.53;3.70;;;;;;;3.44;65.93;99646.50;5102687;28;20451;-63
2021/04/06 03:36:48;;;;;;;4.47;3.20;;;;;;;3.49;66.13;99639.09;5098361;28;20497;-63
2021/04/06 03:39:15;;;;;;;6.38;3.28;;;;;;;3.33;65.97;99649.91;5084060;28;20451;-62
2021/04/06 03:41:41;;;;;;;5.40;2.83;;;;;;;3.03;67.26;99644.16;5084087;28;20225;-62
2021/04/06 03:44:09;;;;;;;4.33;3.10;;;;;;;2.76;67.91;99637.19;5084702;28;21038;-63
2021/04/06 03:46:36;;;;;;;6.80;3.97;;;;;;;2.80;68.03;99639.50;5086715;28;20471;-63
2021/04/06 03:49:13;;;;;;;4.60;3.03;;;;;;;2.78;67.87;99632.66;5086308;28;20237;-62
2021/04/06 03:51:48;;;;;;;4.40;3.30;;;;;;;2.88;67.89;99643.41;5102621;28;20462;-63
2021/04/06 03:54:38;;;;;;;3.77;2.80;;;;;;;2.87;67.89;99644.38;5104128;28;20212;-63
2021/04/06 03:57:24;;;;;;;8.20;2.80;;;;;;;2.96;67.42;99649.84;5058886;28;20571;-63
2021/04/06 03:59:50;;;;;;;3.40;3.07;;;;;;;2.92;67.73;99642.25;5071111;28;20440;-62
2021/04/06 04:02:16;;;;;;;3.23;2.93;;;;;;;2.89;67.55;99637.19;5083575;28;20896;-63
2021/04/06 04:04:43;;;;;;;6.30;2.80;;;;;;;3.13;67.08;99646.03;5083615;28;20786;-62
2021/04/06 04:07:10;;;;;;;9.70;3.53;;;;;;;2.73;68.38;99642.69;5083769;28;20996;-63
2021/04/06 04:09:37;;;;;;;4.67;3.27;;;;;;;2.73;68.36;99637.41;5097248;28;20241;-63
2021/04/06 04:12:04;;;;;;;5.00;3.30;;;;;;;2.75;68.44;99632.88;5069141;28;20508;-62
2021/04/06 04:14:30;;;;;;;8.10;3.63;;;;;;;3.00;67.46;99635.50;5077060;28;20245;-63
2021/04/06 04:16:56;;;;;;;4.13;3.20;;;;;;;2.92;67.74;99642.25;5083203;28;20909;-63
2021/04/06 04:19:23;;;;;;;3.67;3.33;;;;;;;2.82;68.05;99642.03;5094468;28;20452;-63
2021/04/06 04:21:49;;;;;;;5.30;3.00;;;;;;;2.74;68.74;99641.72;5083124;28;20506;-63
2021/04/06 04:24:15;;;;;;;8.83;3.50;;;;;;;2.76;68.83;99651.25;5092289;28;20847;-62
2021/04/06 04:26:42;;;;;;;6.03;3.50;;;;;;;2.73;68.62;99646.16;5101147;28;20475;-63
2021/04/06 04:29:09;;;;;;;4.95;3.95;;;;;;;2.79;68.83;99650.16;5103855;28;20415;-62
2021/04/06 04:31:35;;;;;;;5.80;3.17;;;;;;;2.79;68.89;99648.38;5081630;28;20230;-62
2021/04/06 04:34:01;;;;;;;5.30;3.67;;;;;;;3.13;67.80;99645.19;5078108;28;20657;-63
2021/04/06 04:36:27;;;;;;;8.50;4.50;;;;;;;2.95;67.93;99648.16;5082793;28;20479;-62
2021/04/06 04:38:54;;;;;;;10.23;5.60;;;;;;;2.72;68.68;99639.19;5082392;28;20432;-63
2021/04/06 04:41:20;;;;;;;7.47;4.20;;;;;;;2.99;67.94;99636.44;5095138;28;20479;-63
2021/04/06 04:43:47;;;;;;;8.37;5.03;;;;;;;2.90;68.29;99628.28;5087193;28;20486;-63
2021/04/06 04:46:13;;;;;;;10.90;5.00;;;;;;;3.02;67.74;99638.00;5081251;28;20574;-63
2021/04/06 04:48:39;;;;;;;10.00;5.20;;;;;;;2.94;67.79;99643.84;5081177;28;20459;-63
2021/04/06 04:51:06;;;;;;;6.83;4.30;;;;;;;3.03;67.57;99649.44;5082578;28;20981;-63
2021/04/06 04:53:32;;;;;;;8.53;4.93;;;;;;;3.11;67.45;99661.16;5082452;28;20436;-64
2021/04/06 04:55:58;;;;;;;8.90;4.00;;;;;;;3.24;67.04;99652.34;5084020;28;20483;-64
2021/04/06 04:58:24;;;;;;;5.63;3.80;;;;;;;3.28;67.12;99659.97;5081616;28;20541;-64
2021/04/06 05:00:51;;;;;;;6.30;4.27;;;;;;;3.49;66.46;99662.00;5078203;28;20460;-63
2021/04/06 05:03:18;;;;;;;8.10;4.57;;;;;;;3.31;66.59;99659.72;5081683;28;20452;-64
2021/04/06 05:05:44;;;;;;;4.70;3.90;;;;;;;3.42;66.33;99658.13;5098216;28;20482;-64
2021/04/06 05:08:10;;;;;;;4.73;4.17;;;;;;;3.51;66.09;99666.25;5100145;28;20455;-63
2021/04/06 05:10:36;;;;;;;6.07;3.80;;;;;;;3.52;66.11;99664.44;5100215;28;20577;-64
2021/04/06 05:13:02;;;;;;;13.40;4.63;;;;;;;3.65;65.54;99670.53;5095054;28;20220;-64
2021/04/06 05:15:30;;;;;;;4.80;3.77;;;;;;;3.55;65.91;99672.16;5080470;28;20977;-65
2021/04/06 05:17:57;;;;;;;7.47;4.50;;;;;;;3.53;66.10;99663.50;5087122;28;20525;-64
2021/04/06 05:20:23;;;;;;;5.30;3.90;;;;;;;3.33;66.78;99675.47;5084487;28;20451;-63
2021/04/06 05:22:50;;;;;;;5.23;3.37;;;;;;;3.22;67.64;99675.41;5080635;28;20463;-64
2021/04/06 05:25:17;;;;;;;7.50;3.87;;;;;;;3.10;68.31;99677.94;5080513;28;20495;-62
2021/04/06 05:27:43;;;;;;;6.47;3.30;;;;;;;3.14;67.91;99678.56;5101512;28;20419;-62
2021/04/06 05:30:10;;;;;;;4.60;2.83;;;;;;;3.23;68.57;99677.94;5099400;28;20481;-65
2021/04/06 05:32:36;;;;;;;6.88;3.17;;;;;;;3.25;67.87;99667.25;5065854;28;20444;-63
2021/04/06 05:35:05;;;;;;;7.70;3.10;;;;;;;3.23;67.67;99683.22;5081016;28;20206;-64
2021/04/06 05:37:32;;;;;;;4.27;3.10;;;;;;;3.28;67.59;99685.53;5100477;28;20475;-63
2021/04/06 05:39:58;;;;;;;7.47;3.60;;;;;;;3.13;68.12;99690.09;5097544;28;20440;-63
2021/04/06 05:42:24;;;;;;;5.53;3.13;;;;;;;3.30;67.47;99704.75;5082203;28;20229;-63
2021/04/06 05:44:51;;;;;;;4.87;3.00;;;;;;;3.43;67.02;99695.00;5081196;28;20221;-64
2021/04/06 05:47:20;;;;;;;9.70;3.20;;;;;;;3.33;67.29;99694.84;5079842;28;20490;-64
2021/04/06 05:49:46;;;;;;;7.60;3.40;;;;;;;3.60;66.37;99703.56;5072563;28;20475;-64
2021/04/06 05:52:14;;;;;;;9.17;3.43;;;;;;;3.56;66.53;99695.84;5081160;28;20483;-63
2021/04/06 05:54:40;;;;;;;6.47;2.60;;;;;;;3.72;65.86;99700.88;5080164;28;20452;-62
2021/04/06 05:57:07;;;;;;;7.33;3.03;;;;;;;3.30;66.87;99707.38;5080466;28;20499;-62
2021/04/06 05:59:33;;;;;;;7.35;3.10;;;;;;;3.69;66.40;99697.59;5078112;28;20846;-62
2021/04/06 06:01:59;;;;;;;5.03;2.88;;;;;;;3.69;65.76;99701.06;5078960;28;20226;-63
2021/04/06 06:04:25;;;;;;;2.87;2.60;;;;;;;3.13;67.81;99700.66;5074127;28;20578;-62
2021/04/06 06:06:52;;;;;;;4.43;2.67;;;;;;;3.85;65.73;99695.53;5060096;28;20686;-64
2021/04/06 06:09:29;;;;;;;8.45;2.80;;;;;;;3.73;65.61;99702.56;5071355;28;20503;-64
2021/04/06 06:11:56;;;;;;;7.73;2.83;;;;;;;4.13;65.14;99704.94;5071878;28;20228;-63
2021/04/06 06:14:27;;;;;;;4.60;2.77;;;;;;;4.46;64.31;99711.34;5080381;28;20472;-64
2021/04/06 06:16:53;;;;;;;7.43;2.70;;;;;;;4.30;64.23;99706.31;5079094;28;20480;-63
2021/04/06 06:19:19;;;;;;;8.20;2.57;;;;;;;4.25;64.83;99716.44;5099091;28;20455;-64
2021/04/06 06:21:47;;;;;;;8.73;1.90;;;;;;;3.24;68.30;99711.31;5099949;28;20482;-61
2021/04/06 06:24:25;;;;;;;9.57;2.63;;;;;;;3.45;68.02;99708.13;5079425;28;20440;-61
2021/04/06 06:26:52;;;;;;;6.83;2.73;;;;;;;3.60;67.31;99700.91;5077669;28;20992;-61
2021/04/06 06:29:21;;;;;;;9.80;2.30;;;;;;;3.61;67.42;99706.09;5065231;28;20465;-60
2021/04/06 06:31:49;;;;;;;9.70;2.50;;;;;;;4.00;65.88;99698.84;5064387;28;20571;-58
2021/04/06 06:34:29;;;;;;;9.93;3.40;;;;;;;4.16;65.51;99703.88;5079975;28;20460;-59
2021/04/06 06:37:07;;;;;;;15.30;2.73;;;;;;;3.58;67.15;99708.94;5076857;28;20490;-59
2021/04/06 06:39:34;;;;;;;11.07;3.10;;;;;;;3.99;66.24;99706.91;5077727;28;20448;-59
2021/04/06 06:42:03;;;;;;;9.43;2.73;;;;;;;4.39;64.69;99712.72;5078918;28;20562;-60
2021/04/06 06:44:30;;;;;;;7.27;2.70;;;;;;;4.13;64.27;99712.88;5080022;28;20467;-60
2021/04/06 06:47:08;;;;;;;8.13;2.77;;;;;;;4.53;63.79;99717.88;5078602;28;20476;-62
2021/04/06 06:49:39;;;;;;;6.10;2.40;;;;;;;5.95;58.96;99720.09;5074417;28;20605;-61
2021/04/06 06:52:30;;;;;;;5.20;1.97;;;;;;;7.14;54.61;99713.78;5079857;28;20533;-62
2021/04/06 06:55:00;;;;;;;10.90;3.67;;;;;;;7.97;52.40;99705.69;5078783;28;20463;-60
2021/04/06 06:57:29;;;;;;;7.70;2.07;;;;;;;10.73;44.72;99711.66;5078811;28;20479;-62
2021/04/06 07:00:05;;;;;;;8.23;2.30;;;;;;;9.00;48.07;99711.47;5080114;28;20448;-61
2021/04/06 07:02:31;;;;;;;8.20;2.40;;;;;;;9.43;46.38;99704.75;5082921;28;20454;-61
2021/04/06 07:05:16;;;;;;;3.73;1.80;;;;;;;7.90;50.47;99705.41;5081521;28;20464;-58
2021/04/06 07:07:58;;;;;;;4.93;2.07;;;;;;;6.08;55.30;99712.03;5078086;28;20456;-60
2021/04/06 07:10:26;;;;;;;7.33;2.40;;;;;;;9.09;48.64;99702.59;5078597;28;20549;-60
2021/04/06 07:12:58;;;;;;;9.13;1.90;;;;;;;10.97;42.65;99704.78;5079700;28;20436;-59
2021/04/06 07:15:26;;;;;;;5.47;1.70;;;;;;;9.89;44.96;99697.59;5078353;28;20539;-61
2021/04/06 07:17:56;;;;;;;8.37;2.30;;;;;;;11.29;41.78;99696.97;5079803;28;20479;-62
2021/04/06 07:20:22;;;;;;;3.67;1.57;;;;;;;10.17;43.16;99700.25;5078781;28;20444;-62
2021/04/06 07:22:53;;;;;;;6.63;2.07;;;;;;;9.07;46.81;99698.41;5078540;28;20504;-61
2021/04/06 07:25:20;;;;;;;10.10;3.57;;;;;;;8.86;47.75;99705.59;5074609;28;20463;-63
2021/04/06 07:27:46;;;;;;;8.20;1.70;;;;;;;10.26;43.62;99703.81;5058391;28;20800;-61
2021/04/06 07:30:15;;;;;;;5.27;1.60;;;;;;;11.09;42.21;99699.03;5059177;28;20453;-62
2021/04/06 07:32:42;;;;;;;6.10;1.60;;;;;;;11.63;39.83;99693.47;5083699;28;20432;-62
2021/04/06 07:35:09;;;;;;;5.83;1.63;;;;;;;9.23;45.74;99690.63;5091457;28;20451;-62
2021/04/06 07:37:38;;;;;;;13.00;2.73;;;;;;;7.23;50.95;99696.22;5098793;28;20500;-61
2021/04/06 07:40:08;;;;;;;5.67;2.37;;;;;;;7.01;52.24;99707.84;5099012;28;20455;-61
2021/04/06 07:42:35;;;;;;;5.50;2.10;;;;;;;9.52;46.42;99705.69;5088623;28;20444;-62
2021/04/06 07:45:03;;;;;;;18.40;2.50;;;;;;;8.07;49.58;99703.91;5078734;28;20452;-62
2021/04/06 07:47:38;;;;;;;6.67;2.00;;;;;;;7.41;52.40;99701.72;5070612;28;20468;-63
2021/04/06 07:50:11;;;;;;;8.63;2.50;;;;;;;6.36;53.74;99707.94;5087597;28;20442;-63
2021/04/06 07:52:38;;;;;;;11.63;2.10;;;;;;;5.79;56.73;99709.88;5101495;28;20478;-61
2021/04/06 07:55:05;;;;;;;7.17;2.50;;;;;;;7.19;52.79;99696.59;5090115;28;20453;-60
2021/04/06 07:57:44;;;;;;;14.27;2.37;;;;;;;8.61;49.19;99695.50;5075135;28;20494;-61
2021/04/06 08:00:13;;;;;;;7.80;2.40;;;;;;;9.72;45.24;99695.75;5077423;28;20826;-61
2021/04/06 08:02:44;;;;;;;9.00;2.20;;;;;;;8.75;47.40;99699.56;5074873;28;20454;-61
2021/04/06 08:05:18;;;;;;;8.80;2.30;;;;;;;7.80;49.84;99709.03;5074064;28;20465;-59
2021/04/06 08:07:44;;;;;;;6.87;2.00;;;;;;;7.92;49.42;99700.78;5071702;28;20468;-59
2021/04/06 08:10:42;;;;;;;10.03;2.87;;;;;;;8.05;49.32;99711.16;5070519;28;20487;-61
2021/04/06 08:13:13;;;;;;;9.13;2.40;;;;;;;8.69;48.38;99703.66;5074783;28;20459;-61
2021/04/06 08:15:39;;;;;;;13.00;2.30;;;;;;;8.59;47.59;99708.16;5076638;28;21069;-64
2021/04/06 08:18:06;;;;;;;15.03;2.60;;;;;;;8.75;47.89;99707.56;5081850;28;20448;-63
2021/04/06 08:20:36;;;;;;;11.23;3.30;;;;;;;7.72;49.28;99699.91;5079920;28;20463;-62
2021/04/06 08:23:04;;;;;;;11.50;2.10;;;;;;;7.13;51.74;99700.63;5080382;28;20494;-63
2021/04/06 08:25:52;;;;;;;12.33;2.43;;;;;;;7.08;50.86;99703.72;5079857;28;20471;-62
2021/04/06 08:28:47;;;;;;;5.10;2.33;;;;;;;6.57;52.18;99705.31;5073266;28;20467;-67
2021/04/06 08:31:30;;;;;;;5.00;2.17;;;;;;;9.23;46.41;99709.28;5073169;28;20464;-62
2021/04/06 08:34:39;;;;;;;8.47;2.17;;;;;;;8.58;46.96;99698.50;5079580;28;20490;-63
2021/04/06 08:37:10;;;;;;;7.03;1.90;;;;;;;7.57;49.36;99705.72;5078027;28;20977;-64
2021/04/06 08:39:38;;;;;;;10.07;2.53;;;;;;;6.44;51.48;99707.34;5072451;28;20475;-63
2021/04/06 08:42:06;;;;;;;8.23;2.33;;;;;;;6.59;51.59;99702.53;5081525;28;20916;-62
2021/04/06 08:44:33;;;;;;;7.47;2.30;;;;;;;6.06;52.50;99706.03;5065287;28;20457;-64
2021/04/06 08:47:00;;;;;;;5.70;2.13;;;;;;;6.22;52.48;99705.59;5068402;28;20479;-60
2021/04/06 08:49:27;;;;;;;6.23;1.90;;;;;;;8.00;49.43;99707.22;5074774;28;20457;-60
2021/04/06 08:51:54;;;;;;;9.20;1.97;;;;;;;8.60;46.09;99710.66;5079237;28;20467;-60
2021/04/06 08:54:23;;;;;;;6.83;1.80;;;;;;;8.35;45.74;99704.06;5069581;28;20453;-63
2021/04/06 08:56:52;;;;;;;5.50;1.90;;;;;;;6.88;48.88;99708.06;5060394;28;20480;-64
2021/04/06 08:59:21;;;;;;;9.07;2.57;;;;;;;7.82;47.05;99705.25;5063293;28;20442;-64
2021/04/06 09:01:49;;;;;;;9.80;2.07;;;;;;;9.29;44.08;99705.19;5079085;28;20914;-65
2021/04/06 09:04:18;;;;;;;5.33;1.70;;;;;;;8.69;44.91;99711.66;5087020;28;20464;-64
2021/04/06 09:06:44;;;;;;;6.23;2.40;;;;;;;9.22;44.41;99705.78;5080058;28;20467;-62
2021/04/06 09:09:11;;;;;;;3.70;2.00;;;;;;;10.87;39.64;99705.75;5069577;28;20487;-63
2021/04/06 09:11:39;;;;;;;10.03;2.43;;;;;;;11.36;38.50;99697.19;5078374;28;20462;-62
2021/04/06 09:14:07;;;;;;;9.63;2.33;;;;;;;11.24;38.21;99693.94;5074783;28;20452;-62
2021/04/06 09:16:34;;;;;;;8.80;1.87;;;;;;;12.24;38.41;99686.13;5069719;28;20484;-63
2021/04/06 09:19:04;;;;;;;4.33;1.80;;;;;;;13.59;35.57;99687.50;5065274;28;20478;-63
2021/04/06 09:21:31;;;;;;;6.23;1.67;;;;;;;12.32;35.38;99692.50;5075012;28;20526;-63
2021/04/06 09:23:59;;;;;;;2.90;1.87;;;;;;;11.00;37.33;99691.94;5079373;28;20888;-65
2021/04/06 09:26:27;;;;;;;8.23;1.90;;;;;;;8.45;43.45;99686.31;5077557;28;20482;-61
2021/04/06 09:29:06;;;;;;;5.57;1.63;;;;;;;9.75;41.87;99680.25;5080691;28;20452;-62
2021/04/06 09:31:34;;;;;;;7.20;1.57;;;;;;;11.08;38.67;99673.28;5064829;28;20475;-61
2021/04/06 09:34:10;;;;;;;4.10;1.40;;;;;;;10.22;39.13;99675.75;5081634;28;20451;-60
2021/04/06 09:36:37;;;;;;;4.03;1.43;;;;;;;11.75;38.36;99685.97;5072529;28;20507;-61
2021/04/06 09:39:05;;;;;;;3.33;1.47;;;;;;;11.91;35.71;99677.19;5079384;28;20455;-60
2021/04/06 09:41:34;;;;;;;4.00;1.37;;;;;;;10.57;36.93;99680.25;5076887;28;20476;-63
2021/04/06 09:44:01;;;;;;;7.03;2.80;;;;;;;10.49;39.12;99670.34;5071706;28;20441;-62
2021/04/06 09:46:40;;;;;;;5.30;2.00;;;;;;;10.76;38.94;99668.53;5072419;28;20464;-61
2021/04/06 09:49:07;;;;;;;7.73;1.63;;;;;;;10.52;38.46;99685.25;5076575;28;20456;-63
2021/04/06 09:51:36;;;;;;;5.13;1.40;;;;;;;11.67;36.64;99670.72;5072219;28;20472;-63
2021/04/06 09:54:04;;;;;;;9.97;2.23;;;;;;;11.89;36.12;99671.13;5060524;28;20441;-61
2021/04/06 09:56:30;;;;;;;5.27;1.73;;;;;;;11.01;38.38;99666.06;5071389;28;20561;-61
2021/04/06 09:58:57;;;;;;;3.73;2.10;;;;;;;10.20;39.47;99670.56;5080185;28;20440;-61
2021/04/06 10:01:27;;;;;;;4.37;1.33;;;;;;;8.93;41.43;99663.22;5074141;28;20538;-62
2021/04/06 10:03:56;;;;;;;7.60;2.07;;;;;;;10.20;39.16;99669.72;5077114;28;20455;-63
2021/04/06 10:06:34;;;;;;;6.27;2.03;;;;;;;9.71;41.38;99657.53;5079579;28;20483;-63
2021/04/06 10:09:23;;;;;;;9.00;2.23;;;;;;;8.53;44.37;99669.59;5077272;28;20497;-63
2021/04/06 10:11:50;;;;;;;3.87;1.63;;;;;;;8.28;46.89;99668.28;5076693;28;20479;-62
2021/04/06 10:14:17;;;;;;;8.50;1.83;;;;;;;10.02;43.41;99665.22;5079607;28;20447;-62
2021/04/06 10:16:44;;;;;;;5.70;1.67;;;;;;;10.98;39.29;99650.31;5075400;28;20475;-62
2021/04/06 10:19:22;;;;;;;8.07;2.10;;;;;;;11.91;36.79;99646.88;5078836;28;20531;-61
2021/04/06 10:22:06;;;;;;;3.63;1.10;;;;;;;11.98;37.69;99647.91;5078138;28;20479;-61
2021/04/06 10:24:34;;;;;;;4.80;1.53;;;;;;;11.88;38.47;99645.34;5071420;28;20454;-63
2021/04/06 10:27:08;;;;;;;2.73;1.13;;;;;;;10.98;36.60;99636.94;5071195;28;20490;-61
2021/04/06 10:29:36;;;;;;;5.00;1.73;;;;;;;10.06;38.39;99645.22;5079517;28;20439;-61
2021/04/06 10:32:02;;;;;;;4.90;1.50;;;;;;;9.91;38.33;99636.91;5071193;28;20484;-61
2021/04/06 10:34:30;;;;;;;3.70;1.40;;;;;;;10.23;38.68;99642.72;5069304;28;20465;-62
2021/04/06 10:37:01;;;;;;;3.50;1.73;;;;;;;10.46;37.21;99630.56;5075840;28;20486;-62
2021/04/06 10:39:35;;;;;;;6.33;1.70;;;;;;;10.52;37.02;99635.31;5066408;28;20455;-63
2021/04/06 10:42:03;;;;;;;6.20;1.83;;;;;;;10.92;36.31;99620.53;5072997;28;20475;-63
2021/04/06 10:44:30;;;;;;;3.10;1.20;;;;;;;12.50;33.98;99611.91;5079360;28;20548;-62
2021/04/06 10:46:56;;;;;;;7.10;1.57;;;;;;;12.16;34.50;99623.63;5078682;28;20476;-62
2021/04/06 10:49:22;;;;;;;3.53;1.53;;;;;;;12.21;33.56;99598.00;5079116;28;20458;-61
2021/04/06 10:51:51;;;;;;;3.30;1.37;;;;;;;10.97;35.13;99605.81;5068353;28;20467;-62
2021/04/06 10:54:18;;;;;;;4.00;1.40;;;;;;;12.53;32.43;99595.47;5079179;28;20444;-63
2021/04/06 10:56:46;;;;;;;5.13;1.60;;;;;;;11.64;33.79;99592.56;5076822;28;20530;-61
2021/04/06 10:59:14;;;;;;;3.30;1.23;;;;;;;10.43;34.40;99584.59;5079584;28;20439;-62
2021/04/06 11:01:41;;;;;;;4.43;1.40;;;;;;;8.97;37.99;99595.25;5081879;28;20793;-61
2021/04/06 11:04:10;;;;;;;4.63;1.47;;;;;;;8.21;41.27;99596.13;5087915;28;20448;-62
2021/04/06 11:06:39;;;;;;;6.53;1.50;;;;;;;8.63;41.04;99597.66;5078500;28;20468;-61
2021/04/06 11:09:14;;;;;;;7.40;1.53;;;;;;;9.66;38.64;99589.59;5078082;28;20517;-62
2021/04/06 11:11:41;;;;;;;6.30;1.67;;;;;;;9.97;36.97;99595.41;5074994;28;21086;-62
2021/04/06 11:14:09;;;;;;;4.70;1.50;;;;;;;8.47;40.11;99590.22;5075050;28;20443;-61
2021/04/06 11:16:37;;;;;;;3.80;1.73;;;;;;;7.64;44.20;99611.94;5078077;28;20522;-61
2021/04/06 11:19:07;;;;;;;1.30;0.97;;;;;;;5.89;54.35;99629.56;5072979;28;20457;-60
2021/04/06 11:21:35;;;;;;;2.43;1.33;;;;;;;5.50;57.68;99621.22;5063699;28;20471;-61
2021/04/06 11:24:01;;;;;;;3.27;1.30;;;;;;;5.10;60.04;99625.25;5070855;28;20445;-60
2021/04/06 11:26:29;;;;;;;3.10;1.10;;;;;;;5.39;60.60;99641.47;5070732;28;20479;-61
2021/04/06 11:28:55;;;;;;;2.60;1.00;;;;;;;5.17;61.58;99634.38;5077128;28;20512;-61
2021/04/06 11:31:22;;;;;;;2.60;1.23;;;;;;;5.00;63.14;99626.91;5082273;28;20475;-61
2021/04/06 11:33:48;;;;;;;5.63;1.40;;;;;;;5.64;62.81;99624.47;5075014;28;20490;-62
2021/04/06 11:36:15;;;;;;;5.10;1.77;;;;;;;6.62;60.55;99617.28;5072466;28;20455;-62
2021/04/06 11:38:42;;;;;;;3.63;1.23;;;;;;;7.86;56.55;99615.31;5083027;28;20447;-65
2021/04/06 11:41:08;;;;;;;5.30;2.30;;;;;;;8.79;53.87;99623.69;5077698;28;20487;-65
2021/04/06 11:43:35;;;;;;;4.93;1.60;;;;;;;9.11;50.65;99617.13;5072556;28;20524;-65
2021/04/06 11:46:02;;;;;;;3.10;1.30;;;;;;;8.26;53.18;99617.88;5068791;28;20479;-65
2021/04/06 11:48:28;;;;;;;3.67;1.27;;;;;;;8.12;53.06;99615.59;5091839;28;20949;-65